Madison Park, Louisiana
Current Conditions -  °F | °C
As of 7:53 PM on Sunday 21 Dec 2014 (Local Time) from KDTN Reporting Station
Clear Clear  
Wind Chill: 51°   Ceiling: Unl
Heat Index: 51°   Visibility: 10mi
Dew Point: 44°   Wind: 7mph
Humidity: 77%   Direction: 200°SSW
Pressure: 29.92"   Gusts: NA
Location:  32.457°N, 93.7096°W
Report Text: KDTN 220153Z AUTO 20006KT 10SM CLR 11/07 A2992 RMK AO2 SLP131 T01060067 $
Loading
Personal Weather Stations






























Interactive Weather Map New forecast layout! Learn more

10-Day Weather Forecast

Advertisements
Track Severe Weather on mobile